Decoded Metar for SAZM (MAR DEL PLATA in ARGENTINA) (IATA:MDQ) | Meteo·Mobile Aviation Weather
aviador You're here:

SAZM Decoded Metar

MAR DEL PLATA in ARGENTINA
Report Time2018-09-23 14:00:00
UTC Time2018-09-23 14:33:15
Flight Rules vfr VFR
Wind110° at 05 kt
W.Decomp.*RWY 13: 4.9 kt HW 1.2 kt LCW
W.Rank110° ranks 13
Current wind is below 110° avg. (8.5)
Visibility9999 m
Phenomena:N/A
Clouds:N/A
Expected CloudBase > 2,000 ft AGL from Temp-Dew spread
CeilingNone
Temp16°C (ISA +1)
Dew Point11°C (72% RH)
AAT14.5°C
QNH1010 hPa
Density Alt482 ft
Elevation69 ft
Report Wrong Elevation
Raw Report
METAR SAZM 231400Z 11005KT CAVOK 16/11 Q1010=

Extra information for SAZM:More info

Metar Taf Metar & Taf Last 4 Metars F.Rules Stats Wind Profile Meteogram Temp Stats Airport Information Weather charts Add Link Nearby VenuesMetar ALERT Operation Metar Decoded Social comments